Time;durP1;ratioP1;P1;durP2;ratioP2;P2;SDS_P1;SDS_P2;PMS_P1;PMS_P2;Temp;Humidity;BMP_temperature;BMP_pressure;BME280_temperature;BME280_humidity;BME280_pressure;Samples;Min_cycle;Max_cycle;Signal;HPM_P1;HPM_P2
2021/04/03 00:00:31;;;;;;;9.80;2.40;;;;;;;8.45;52.67;100612.94;5077286;28;20048;-82
2021/04/03 00:02:57;;;;;;;15.88;2.30;;;;;;;8.45;52.33;100619.03;5077133;28;20048;-82
2021/04/03 00:05:25;;;;;;;13.15;2.95;;;;;;;8.45;52.68;100605.91;5078230;28;20067;-82
2021/04/03 00:07:51;;;;;;;12.95;3.10;;;;;;;8.43;52.67;100599.88;5078021;28;20056;-82
2021/04/03 00:10:21;;;;;;;17.48;2.22;;;;;;;8.45;52.39;100603.28;5075730;28;20094;-84
2021/04/03 00:12:47;;;;;;;12.85;1.92;;;;;;;8.47;52.20;100606.75;5074669;28;20048;-84
2021/04/03 00:15:14;;;;;;;10.82;2.28;;;;;;;8.49;52.62;100606.69;5074703;28;20051;-84
2021/04/03 00:17:41;;;;;;;13.43;2.35;;;;;;;8.50;52.45;100605.78;5073361;28;20055;-84
2021/04/03 00:20:09;;;;;;;16.10;2.00;;;;;;;8.50;52.15;100605.78;5074688;28;20052;-82
2021/04/03 00:22:36;;;;;;;16.20;2.50;;;;;;;8.50;52.09;100607.53;5073345;28;20049;-84
2021/04/03 00:25:03;;;;;;;17.63;2.50;;;;;;;8.46;51.95;100601.53;5074351;28;20048;-84
2021/04/03 00:27:29;;;;;;;10.75;1.83;;;;;;;8.45;52.12;100608.53;5074458;28;20102;-84
2021/04/03 00:29:55;;;;;;;19.08;2.58;;;;;;;8.44;51.97;100598.09;5073540;28;20048;-84
2021/04/03 00:32:21;;;;;;;12.90;2.45;;;;;;;8.43;52.12;100593.75;5074249;28;20048;-84
2021/04/03 00:34:47;;;;;;;12.15;2.42;;;;;;;8.43;52.11;100605.13;5072686;28;20493;-83
2021/04/03 00:37:14;;;;;;;15.90;2.80;;;;;;;8.42;52.02;100605.19;5074387;28;20409;-84
2021/04/03 00:39:40;;;;;;;15.18;2.35;;;;;;;8.41;52.28;100606.09;5074124;28;20508;-84
2021/04/03 00:42:17;;;;;;;13.07;2.33;;;;;;;8.36;52.43;100608.84;5073371;28;20056;-84
2021/04/03 00:44:47;;;;;;;11.57;1.70;;;;;;;8.34;52.37;100611.53;5072765;28;20052;-84
2021/04/03 00:47:16;;;;;;;9.73;2.10;;;;;;;8.33;52.28;100604.56;5072995;28;20055;-84
2021/04/03 00:49:44;;;;;;;14.95;2.22;;;;;;;8.33;51.87;100601.09;5072637;28;20052;-84
2021/04/03 00:52:12;;;;;;;13.60;2.13;;;;;;;8.29;51.78;100600.34;5073895;28;20056;-84
2021/04/03 00:54:42;;;;;;;15.80;2.80;;;;;;;8.26;52.40;100592.56;5074107;28;20053;-84
2021/04/03 00:57:09;;;;;;;11.43;2.28;;;;;;;8.24;51.84;100597.03;5072969;28;20080;-84
2021/04/03 00:59:36;;;;;;;15.52;2.65;;;;;;;8.21;51.66;100598.00;5072929;28;20056;-84
2021/04/03 01:02:04;;;;;;;12.60;2.47;;;;;;;8.14;51.76;100591.22;5073887;28;20048;-83
2021/04/03 01:04:30;;;;;;;11.60;2.50;;;;;;;8.10;51.73;100597.47;5072234;28;20060;-84
2021/04/03 01:06:56;;;;;;;12.13;2.28;;;;;;;8.05;51.98;100591.53;5072716;28;20045;-84
2021/04/03 01:09:22;;;;;;;15.05;2.72;;;;;;;7.98;52.14;100592.63;5072779;28;20397;-84
2021/04/03 01:12:24;;;;;;;16.80;3.00;;;;;;;7.89;52.92;100589.41;5073757;28;20062;-83
2021/04/03 01:15:16;;;;;;;13.35;2.40;;;;;;;7.86;52.93;100584.28;5071768;28;20052;-85
2021/04/03 01:17:58;;;;;;;13.57;2.05;;;;;;;7.84;52.71;100585.25;5073878;28;20053;-84
2021/04/03 01:20:48;;;;;;;13.82;2.00;;;;;;;7.81;52.60;100591.41;5073506;28;20056;-84
2021/04/03 01:23:51;;;;;;;11.02;2.20;;;;;;;7.72;53.12;100587.34;5072565;28;20390;-83
2021/04/03 01:26:23;;;;;;;13.98;2.70;;;;;;;7.71;53.15;100593.50;5072601;28;20056;-84
2021/04/03 01:29:09;;;;;;;13.98;3.53;;;;;;;7.66;53.28;100592.75;5073609;28;20053;-84
2021/04/03 01:31:37;;;;;;;14.63;3.28;;;;;;;7.67;52.60;100597.09;5073386;28;20551;-84
2021/04/03 01:34:08;;;;;;;20.90;2.92;;;;;;;7.62;52.71;100592.00;5073171;28;20443;-84
2021/04/03 01:36:40;;;;;;;15.20;2.72;;;;;;;7.59;52.81;100605.19;5072502;28;20056;-84
2021/04/03 01:39:12;;;;;;;14.50;2.05;;;;;;;7.55;53.17;100606.19;5072478;28;20052;-84
2021/04/03 01:41:41;;;;;;;13.20;2.65;;;;;;;7.52;52.77;100604.50;5078014;28;20098;-83
2021/04/03 01:44:11;;;;;;;13.75;2.50;;;;;;;7.50;52.97;100608.09;5079108;28;20048;-84
2021/04/03 01:46:38;;;;;;;14.07;2.33;;;;;;;7.43;52.83;100603.06;5079074;28;20056;-84
2021/04/03 01:49:10;;;;;;;9.80;2.13;;;;;;;7.38;53.27;100610.19;5079926;28;20059;-83
2021/04/03 01:51:39;;;;;;;13.65;2.47;;;;;;;7.38;52.62;100611.94;5080182;28;20048;-84
2021/04/03 01:54:09;;;;;;;13.35;2.22;;;;;;;7.34;52.91;100605.94;5078563;28;20393;-83
2021/04/03 01:56:36;;;;;;;12.80;2.63;;;;;;;7.31;52.84;100611.28;5078874;28;20049;-84
2021/04/03 01:59:05;;;;;;;10.88;2.45;;;;;;;7.28;53.12;100619.22;5079157;28;20048;-84
2021/04/03 02:01:34;;;;;;;12.38;2.55;;;;;;;7.25;53.06;100614.94;5078896;28;20060;-83
2021/04/03 02:04:01;;;;;;;13.23;2.28;;;;;;;7.23;53.17;100623.72;5078406;28;20056;-84
2021/04/03 02:06:28;;;;;;;12.40;2.45;;;;;;;7.21;53.24;100622.94;5079922;28;20451;-84
2021/04/03 02:08:58;;;;;;;13.32;2.78;;;;;;;7.16;53.13;100623.91;5078754;28;20106;-82
2021/04/03 02:11:25;;;;;;;11.75;2.13;;;;;;;7.14;53.26;100612.63;5077583;28;20052;-84
2021/04/03 02:13:54;;;;;;;14.52;2.70;;;;;;;7.12;53.41;100614.44;5079554;28;20079;-84
2021/04/03 02:16:21;;;;;;;15.55;2.20;;;;;;;7.09;53.32;100613.66;5079936;28;20045;-84
2021/04/03 02:18:48;;;;;;;11.25;1.83;;;;;;;7.04;53.39;100612.00;5079754;28;20045;-84
2021/04/03 02:21:14;;;;;;;17.33;2.72;;;;;;;7.01;53.45;100613.88;5079750;28;20056;-83
2021/04/03 02:23:41;;;;;;;10.70;2.03;;;;;;;6.97;53.35;100607.88;5078148;28;20496;-81
2021/04/03 02:26:07;;;;;;;12.80;2.30;;;;;;;6.95;53.47;100600.97;5078874;28;20056;-84
2021/04/03 02:28:34;;;;;;;16.65;2.17;;;;;;;6.91;53.39;100606.28;5078694;28;20127;-84
2021/04/03 02:31:00;;;;;;;11.93;3.13;;;;;;;6.87;53.35;100604.66;5078812;28;20048;-84
2021/04/03 02:33:26;;;;;;;16.02;2.67;;;;;;;6.84;53.62;100609.97;5078214;28;20063;-84
2021/04/03 02:35:53;;;;;;;18.75;2.78;;;;;;;6.81;53.73;100612.69;5079417;28;20054;-83
2021/04/03 02:38:20;;;;;;;12.77;2.95;;;;;;;6.78;53.77;100621.44;5079705;28;20386;-84
2021/04/03 02:40:46;;;;;;;17.10;3.25;;;;;;;6.76;53.71;100618.03;5078796;28;20439;-84
2021/04/03 02:43:19;;;;;;;13.52;2.60;;;;;;;6.74;53.54;100614.63;5078366;28;20049;-84
2021/04/03 02:45:58;;;;;;;17.85;3.47;;;;;;;6.70;54.71;100626.06;5079502;28;20451;-84
2021/04/03 02:48:30;;;;;;;14.98;2.65;;;;;;;6.72;54.61;100628.59;5078179;28;20059;-84
2021/04/03 02:50:59;;;;;;;11.90;3.05;;;;;;;6.71;54.47;100632.13;5079666;28;20056;-84
2021/04/03 02:53:29;;;;;;;19.00;3.08;;;;;;;6.71;54.49;100622.53;5074124;28;20048;-83
2021/04/03 02:56:00;;;;;;;9.32;2.42;;;;;;;6.72;54.76;100626.88;5074852;28;20079;-84
2021/04/03 02:58:32;;;;;;;13.55;2.97;;;;;;;6.73;55.00;100628.56;5076599;28;20052;-84
2021/04/03 03:00:58;;;;;;;15.40;2.83;;;;;;;6.77;54.36;100637.22;5074961;28;20044;-83
2021/04/03 03:03:27;;;;;;;15.30;3.03;;;;;;;6.77;54.50;100632.00;5075831;28;20056;-84
2021/04/03 03:05:59;;;;;;;13.32;2.33;;;;;;;6.76;55.25;100627.63;5074589;28;20040;-84
2021/04/03 03:08:27;;;;;;;16.75;2.97;;;;;;;6.78;54.51;100628.47;5075243;28;20060;-84
2021/04/03 03:10:55;;;;;;;16.65;3.03;;;;;;;6.78;54.92;100626.69;5076133;28;20052;-84
2021/04/03 03:13:22;;;;;;;15.70;2.33;;;;;;;6.78;54.61;100616.22;5074749;28;20052;-83
2021/04/03 03:15:48;;;;;;;13.73;2.72;;;;;;;6.81;54.97;100611.81;5074487;28;20045;-82
2021/04/03 03:18:16;;;;;;;14.55;3.53;;;;;;;6.81;54.91;100604.84;5075828;28;20055;-84
2021/04/03 03:20:43;;;;;;;14.85;3.22;;;;;;;6.85;54.99;100610.84;5075955;28;20052;-84
2021/04/03 03:23:11;;;;;;;14.68;2.70;;;;;;;6.85;54.77;100614.31;5075771;28;20052;-83
2021/04/03 03:25:39;;;;;;;20.65;3.65;;;;;;;6.87;55.00;100616.88;5074340;28;20045;-84
2021/04/03 03:28:06;;;;;;;25.77;3.42;;;;;;;6.89;54.96;100621.16;5075644;28;20048;-84
2021/04/03 03:30:33;;;;;;;17.02;2.72;;;;;;;6.92;55.27;100615.00;5075791;28;20078;-83
2021/04/03 03:32:59;;;;;;;17.40;2.65;;;;;;;6.94;55.15;100614.94;5075545;28;20056;-83
2021/04/03 03:35:26;;;;;;;16.02;2.40;;;;;;;6.96;55.16;100614.03;5074034;28;20106;-83
2021/04/03 03:37:55;;;;;;;16.42;3.40;;;;;;;6.99;55.54;100618.31;5074388;28;20454;-84
2021/04/03 03:40:21;;;;;;;12.18;2.78;;;;;;;7.01;55.03;100617.38;5074355;28;20106;-83
2021/04/03 03:42:49;;;;;;;17.67;3.13;;;;;;;7.03;55.47;100617.31;5074232;28;20048;-84
2021/04/03 03:45:16;;;;;;;18.35;3.08;;;;;;;7.06;54.97;100622.44;5074032;28;20439;-83
2021/04/03 03:47:42;;;;;;;15.88;2.97;;;;;;;7.08;55.37;100623.28;5073995;28;20505;-84
2021/04/03 03:50:10;;;;;;;20.38;3.22;;;;;;;7.10;55.35;100629.31;5074392;28;20109;-83
2021/04/03 03:52:36;;;;;;;19.58;3.88;;;;;;;7.13;55.30;100634.47;5112193;22;20045;-82
2021/04/03 03:55:03;;;;;;;21.88;3.05;;;;;;;7.15;55.38;100645.75;5074904;28;20390;-82
2021/04/03 03:57:29;;;;;;;16.27;3.15;;;;;;;7.16;55.42;100652.72;5074976;28;20045;-83
2021/04/03 03:59:55;;;;;;;16.25;3.00;;;;;;;7.16;55.40;100651.84;5075433;28;20467;-81
2021/04/03 04:02:21;;;;;;;26.60;4.32;;;;;;;7.17;55.71;100658.81;5074110;28;20059;-82
2021/04/03 04:04:48;;;;;;;24.30;4.05;;;;;;;7.21;55.67;100654.34;5073516;28;20420;-82
2021/04/03 04:07:14;;;;;;;18.48;3.72;;;;;;;7.23;55.68;100658.66;5075276;28;20048;-82
2021/04/03 04:09:41;;;;;;;22.85;3.30;;;;;;;7.26;55.51;100657.69;5073746;28;20131;-81
2021/04/03 04:12:08;;;;;;;16.48;3.03;;;;;;;7.32;55.81;100661.91;5074020;28;20048;-82
2021/04/03 04:14:35;;;;;;;14.63;2.80;;;;;;;7.34;55.92;100663.56;5073614;28;20056;-80
2021/04/03 04:17:03;;;;;;;17.73;4.22;;;;;;;7.37;56.21;100660.84;5074623;28;20040;-82
2021/04/03 04:19:29;;;;;;;23.70;4.13;;;;;;;7.41;56.02;100669.50;5073955;28;20044;-82
2021/04/03 04:21:56;;;;;;;22.27;4.22;;;;;;;7.43;55.84;100663.31;5074880;28;20048;-82
2021/04/03 04:24:22;;;;;;;23.13;3.88;;;;;;;7.45;56.11;100663.25;5072926;28;20098;-82
2021/04/03 04:26:48;;;;;;;28.30;4.28;;;;;;;7.46;55.83;100666.72;5074580;28;20041;-82
2021/04/03 04:29:14;;;;;;;17.52;3.45;;;;;;;7.48;56.03;100659.69;5073433;28;20056;-80
2021/04/03 04:31:40;;;;;;;20.95;3.88;;;;;;;7.51;55.82;100657.00;5074650;28;20048;-82
2021/04/03 04:34:06;;;;;;;28.05;4.35;;;;;;;7.52;56.13;100658.69;5073096;28;20048;-82
2021/04/03 04:36:32;;;;;;;24.67;4.13;;;;;;;7.53;56.03;100666.53;5073324;28;20044;-82
2021/04/03 04:38:59;;;;;;;20.05;4.20;;;;;;;7.55;56.10;100669.06;5074230;28;20053;-82
2021/04/03 04:41:25;;;;;;;28.10;3.88;;;;;;;7.56;56.17;100670.81;5074435;28;20048;-82
2021/04/03 04:43:51;;;;;;;20.83;3.85;;;;;;;7.58;56.00;100673.38;5074069;28;20048;-82
2021/04/03 04:46:17;;;;;;;20.30;4.97;;;;;;;7.59;56.14;100682.94;5074447;28;20054;-82
2021/04/03 04:48:44;;;;;;;19.85;4.10;;;;;;;7.59;56.31;100686.41;5074181;28;20528;-82
2021/04/03 04:51:10;;;;;;;23.38;4.35;;;;;;;7.59;56.18;100691.66;5074301;28;20534;-82
2021/04/03 04:53:36;;;;;;;24.80;4.80;;;;;;;7.60;56.00;100684.66;5073875;28;20056;-81
2021/04/03 04:56:02;;;;;;;19.00;4.00;;;;;;;7.60;56.16;100687.28;5072833;28;20049;-82
2021/04/03 04:58:29;;;;;;;24.65;4.32;;;;;;;7.61;56.43;100689.00;5072810;28;20496;-81
2021/04/03 05:00:55;;;;;;;18.73;3.42;;;;;;;7.60;56.30;100693.38;5074278;28;20064;-82
2021/04/03 05:03:21;;;;;;;19.13;4.78;;;;;;;7.60;56.44;100697.75;5072823;28;20485;-82
2021/04/03 05:05:47;;;;;;;16.58;3.78;;;;;;;7.60;56.26;100692.53;5073647;28;20041;-80
2021/04/03 05:08:13;;;;;;;21.10;4.03;;;;;;;7.59;56.67;100702.13;5072991;28;20049;-82
2021/04/03 05:10:39;;;;;;;27.75;5.00;;;;;;;7.60;56.63;100703.00;5073963;28;20049;-82
2021/04/03 05:13:06;;;;;;;23.27;4.30;;;;;;;7.60;56.73;100710.88;5073650;28;20489;-81
2021/04/03 05:15:32;;;;;;;24.85;4.90;;;;;;;7.60;56.62;100713.47;5072054;28;20052;-82
2021/04/03 05:17:58;;;;;;;23.35;4.53;;;;;;;7.60;56.73;100721.34;5074100;28;20390;-82
2021/04/03 05:20:24;;;;;;;24.08;4.50;;;;;;;7.59;56.66;100720.47;5072945;28;20052;-81
2021/04/03 05:22:50;;;;;;;28.63;4.88;;;;;;;7.57;56.88;100724.91;5073540;28;20051;-82
2021/04/03 05:25:16;;;;;;;22.20;4.75;;;;;;;7.56;56.62;100724.03;5072512;28;20050;-82
2021/04/03 05:27:43;;;;;;;24.80;5.00;;;;;;;7.54;56.63;100727.63;5072714;28;20056;-82
2021/04/03 05:30:10;;;;;;;26.13;4.55;;;;;;;7.51;56.90;100738.22;5073797;28;20095;-82
2021/04/03 05:32:36;;;;;;;20.88;3.92;;;;;;;7.49;56.98;100738.25;5072612;28;20061;-82
2021/04/03 05:35:03;;;;;;;22.73;4.65;;;;;;;7.48;57.17;100740.91;5073403;28;20059;-81
2021/04/03 05:37:29;;;;;;;18.77;3.92;;;;;;;7.47;57.15;100744.44;5073584;28;20098;-81
2021/04/03 05:39:55;;;;;;;21.33;4.85;;;;;;;7.47;57.31;100741.81;5073685;28;20056;-82
2021/04/03 05:42:22;;;;;;;20.10;4.03;;;;;;;7.46;57.05;100748.81;5072321;28;20049;-81
2021/04/03 05:44:49;;;;;;;28.38;4.20;;;;;;;7.47;57.46;100755.75;5073226;28;20467;-82
2021/04/03 05:47:16;;;;;;;21.83;4.20;;;;;;;7.49;57.67;100755.72;5073783;28;20056;-82
2021/04/03 05:49:43;;;;;;;22.75;4.30;;;;;;;7.52;57.54;100759.09;5073445;28;20082;-81
2021/04/03 05:52:09;;;;;;;20.33;4.82;;;;;;;7.55;57.76;100758.16;5072396;28;20052;-81
2021/04/03 05:54:37;;;;;;;26.38;5.32;;;;;;;7.56;57.32;100752.88;5072167;28;20496;-83
2021/04/03 05:57:05;;;;;;;23.83;4.53;;;;;;;7.59;57.37;100754.53;5072137;28;20044;-82
2021/04/03 05:59:31;;;;;;;24.63;4.93;;;;;;;7.60;57.62;100761.53;5073391;28;20424;-82
2021/04/03 06:01:58;;;;;;;18.85;4.82;;;;;;;7.62;57.51;100764.09;5073831;28;20053;-81
2021/04/03 06:04:24;;;;;;;25.77;5.15;;;;;;;7.63;57.45;100768.44;5071793;28;20056;-81
2021/04/03 06:06:50;;;;;;;21.60;4.40;;;;;;;7.65;57.77;100777.09;5073813;28;20070;-83
2021/04/03 06:09:17;;;;;;;20.35;5.10;;;;;;;7.66;57.47;100781.44;5073320;28;20098;-82
2021/04/03 06:11:48;;;;;;;25.85;4.97;;;;;;;7.67;58.03;100788.41;5072209;28;20051;-82
2021/04/03 06:14:16;;;;;;;23.45;5.20;;;;;;;7.72;57.63;100790.88;5071928;28;20056;-81
2021/04/03 06:16:43;;;;;;;26.55;5.97;;;;;;;7.72;57.43;100790.88;5073366;28;20045;-81
2021/04/03 06:19:17;;;;;;;25.58;5.68;;;;;;;7.68;58.83;100796.22;5073477;28;20098;-81
2021/04/03 06:21:53;;;;;;;20.48;4.88;;;;;;;7.71;58.38;100804.91;5072081;28;20048;-81
2021/04/03 06:24:30;;;;;;;22.05;4.80;;;;;;;7.69;58.43;100800.56;5072864;28;20501;-81
2021/04/03 06:27:00;;;;;;;21.92;4.47;;;;;;;7.72;57.82;100803.97;5073362;28;20044;-81
2021/04/03 06:29:40;;;;;;;23.42;5.45;;;;;;;7.68;58.61;100813.72;5076985;28;20519;-81
2021/04/03 06:32:22;;;;;;;17.42;4.57;;;;;;;7.69;58.43;100812.78;5075648;28;20067;-82
2021/04/03 06:34:53;;;;;;;28.95;5.38;;;;;;;7.69;57.87;100824.16;5075407;28;20097;-82
2021/04/03 06:37:27;;;;;;;24.90;5.20;;;;;;;7.69;58.63;100824.16;5076824;28;20515;-82
2021/04/03 06:39:56;;;;;;;22.17;4.82;;;;;;;7.73;58.27;100834.56;5075481;28;20067;-82
2021/04/03 06:42:44;;;;;;;16.65;4.93;;;;;;;7.74;59.32;100833.66;5076542;28;20048;-81
2021/04/03 06:45:18;;;;;;;23.20;5.05;;;;;;;7.81;58.74;100837.78;5076161;28;20056;-82
2021/04/03 06:47:50;;;;;;;22.55;5.40;;;;;;;7.83;58.77;100836.00;5075368;28;20052;-82
2021/04/03 06:50:18;;;;;;;29.67;5.93;;;;;;;7.88;58.37;100836.72;5075396;28;20056;-82
2021/04/03 06:52:44;;;;;;;19.83;4.85;;;;;;;7.92;58.21;100841.00;5076319;28;20447;-82
2021/04/03 06:55:14;;;;;;;25.00;5.47;;;;;;;7.97;58.48;100846.13;5076319;28;20389;-82
2021/04/03 06:57:45;;;;;;;27.02;5.75;;;;;;;8.01;59.17;100852.13;5076423;28;20040;-82
2021/04/03 07:00:13;;;;;;;28.83;4.93;;;;;;;8.07;58.28;100844.06;5076369;28;20489;-82
2021/04/03 07:03:10;;;;;;;16.63;4.75;;;;;;;8.11;59.01;100861.44;5075208;28;20048;-82
2021/04/03 07:05:37;;;;;;;25.45;5.95;;;;;;;8.21;58.12;100857.66;5067639;28;20064;-82
2021/04/03 07:08:05;;;;;;;25.88;5.25;;;;;;;8.29;58.40;100851.31;5076533;28;20078;-82
2021/04/03 07:10:34;;;;;;;22.75;5.72;;;;;;;8.35;58.28;100853.75;5076265;28;20045;-82
2021/04/03 07:13:01;;;;;;;20.48;5.30;;;;;;;8.42;58.37;100862.31;5076205;28;20056;-81
2021/04/03 07:15:28;;;;;;;31.15;5.47;;;;;;;8.49;58.11;100866.47;5075991;28;20064;-82
2021/04/03 07:17:55;;;;;;;17.85;4.80;;;;;;;8.57;58.18;100868.88;5076071;28;20084;-82
2021/04/03 07:20:25;;;;;;;29.73;6.03;;;;;;;8.64;58.52;100867.78;5074907;28;20074;-82
2021/04/03 07:22:56;;;;;;;20.25;5.53;;;;;;;8.70;57.97;100867.59;5075865;28;20098;-82
2021/04/03 07:25:27;;;;;;;19.38;5.18;;;;;;;8.77;58.08;100876.13;5075638;28;20044;-81
2021/04/03 07:27:54;;;;;;;24.38;5.65;;;;;;;8.82;57.69;100876.00;5074530;28;20064;-82
2021/04/03 07:30:35;;;;;;;22.40;5.65;;;;;;;8.85;58.83;100889.00;5075854;28;20052;-82
2021/04/03 07:33:10;;;;;;;24.27;5.30;;;;;;;8.93;58.30;100886.16;5075716;28;20048;-82
2021/04/03 07:35:51;;;;;;;22.83;5.75;;;;;;;9.01;58.00;100886.75;5075583;28;20083;-82
2021/04/03 07:38:20;;;;;;;27.10;5.85;;;;;;;9.09;57.91;100883.91;5075160;28;20511;-82
2021/04/03 07:40:48;;;;;;;23.90;5.63;;;;;;;9.16;57.65;100889.81;5075641;28;20130;-82
2021/04/03 07:43:49;;;;;;;25.02;5.82;;;;;;;9.20;58.01;100896.69;5075816;28;20052;-82
2021/04/03 07:46:41;;;;;;;25.00;4.97;;;;;;;9.26;57.34;100883.31;5075632;28;20048;-82
2021/04/03 07:49:08;;;;;;;27.83;5.95;;;;;;;9.35;57.16;100888.28;5075497;28;20045;-83
2021/04/03 07:51:34;;;;;;;21.38;5.03;;;;;;;9.37;56.67;100883.84;5075294;28;20500;-82
2021/04/03 07:54:03;;;;;;;20.25;5.18;;;;;;;9.42;56.77;100883.66;5074989;28;20136;-82
2021/04/03 07:56:47;;;;;;;27.33;5.63;;;;;;;9.44;57.08;100888.88;5074997;28;20052;-82
2021/04/03 07:59:14;;;;;;;27.13;5.60;;;;;;;9.51;56.74;100893.88;5075481;28;20106;-81
2021/04/03 08:01:50;;;;;;;17.33;5.78;;;;;;;9.56;56.97;100895.47;5075230;28;20052;-82
2021/04/03 08:04:25;;;;;;;23.77;5.35;;;;;;;9.60;57.71;100897.09;5073670;28;20044;-82
2021/04/03 08:06:51;;;;;;;19.08;4.80;;;;;;;9.68;56.63;100897.69;5075314;28;20044;-82
2021/04/03 08:09:17;;;;;;;25.20;5.43;;;;;;;9.74;57.03;100894.84;5074867;28;20055;-80
2021/04/03 08:11:45;;;;;;;18.55;4.95;;;;;;;9.79;56.72;100902.56;5073733;28;20049;-82
2021/04/03 08:14:12;;;;;;;25.75;5.22;;;;;;;9.85;56.84;100902.38;5074907;28;20052;-81
2021/04/03 08:16:41;;;;;;;20.25;5.07;;;;;;;9.92;56.93;100908.25;5074969;28;20049;-81
2021/04/03 08:19:08;;;;;;;22.73;6.10;;;;;;;10.00;57.41;100915.88;5073554;28;20547;-82
2021/04/03 08:21:45;;;;;;;23.17;5.85;;;;;;;10.08;56.87;100905.06;5073594;28;20101;-82
2021/04/03 08:24:12;;;;;;;21.48;5.55;;;;;;;10.22;57.26;100912.44;5073608;28;20406;-82
2021/04/03 08:26:41;;;;;;;23.67;5.70;;;;;;;10.30;57.21;100916.53;5074854;28;20433;-82
2021/04/03 08:29:18;;;;;;;21.95;6.43;;;;;;;10.39;56.85;100923.22;5073407;28;20053;-82
2021/04/03 08:31:47;;;;;;;21.33;5.95;;;;;;;10.49;56.50;100922.88;5074756;28;20048;-82
2021/04/03 08:34:13;;;;;;;24.05;5.72;;;;;;;10.57;56.12;100925.25;5072936;28;20048;-81
2021/04/03 08:36:40;;;;;;;24.58;5.75;;;;;;;10.63;56.00;100919.75;5074717;28;20049;-82
2021/04/03 08:39:12;;;;;;;28.10;6.25;;;;;;;10.69;56.00;100923.00;5074362;28;20044;-83
2021/04/03 08:41:44;;;;;;;23.65;5.45;;;;;;;10.77;56.18;100919.22;5074313;28;20055;-82
2021/04/03 08:44:14;;;;;;;24.92;5.80;;;;;;;10.85;56.21;100925.03;5073972;28;20048;-82
2021/04/03 08:46:42;;;;;;;23.38;5.60;;;;;;;10.95;56.13;100917.59;5074311;28;20056;-81
2021/04/03 08:49:10;;;;;;;17.48;5.50;;;;;;;11.03;55.55;100918.16;5073965;28;20139;-82
2021/04/03 08:51:37;;;;;;;25.05;5.72;;;;;;;11.11;54.86;100920.50;5073728;28;20044;-83
2021/04/03 08:54:03;;;;;;;16.48;5.00;;;;;;;11.13;54.41;100920.41;5073737;28;20052;-82
2021/04/03 08:56:34;;;;;;;20.23;5.63;;;;;;;11.11;54.01;100919.63;5072736;28;20117;-83
2021/04/03 08:59:06;;;;;;;20.90;5.60;;;;;;;11.07;53.94;100921.56;5074108;28;20131;-82
2021/04/03 09:01:36;;;;;;;23.58;4.55;;;;;;;11.03;54.01;100919.97;5074153;28;20097;-83
2021/04/03 09:04:07;;;;;;;23.17;5.13;;;;;;;10.99;53.86;100918.38;5072317;28;20501;-82
2021/04/03 09:06:55;;;;;;;19.90;5.28;;;;;;;10.90;53.88;100917.81;5073861;28;20048;-82
2021/04/03 09:09:23;;;;;;;17.83;5.43;;;;;;;10.91;53.85;100913.38;5073757;28;20048;-82
2021/04/03 09:12:00;;;;;;;15.23;4.60;;;;;;;10.87;54.02;100914.44;5073918;28;20055;-82
2021/04/03 09:14:28;;;;;;;17.15;4.63;;;;;;;10.85;53.94;100913.63;5072531;28;20051;-82
2021/04/03 09:16:56;;;;;;;15.48;4.50;;;;;;;10.82;54.20;100918.13;5073906;28;20044;-82
2021/04/03 09:19:27;;;;;;;14.23;4.28;;;;;;;10.81;54.47;100913.75;5072671;28;20059;-82
2021/04/03 09:21:54;;;;;;;15.73;4.53;;;;;;;10.85;54.48;100911.88;5073796;28;20102;-82
2021/04/03 09:24:41;;;;;;;16.17;4.78;;;;;;;10.86;54.82;100912.72;5073812;28;20048;-82
2021/04/03 09:27:13;;;;;;;21.65;4.35;;;;;;;10.96;54.68;100914.06;5074389;28;20090;-82
2021/04/03 09:29:41;;;;;;;19.10;5.65;;;;;;;11.05;55.15;100915.47;5072972;28;20511;-82
2021/04/03 09:32:08;;;;;;;19.15;5.38;;;;;;;11.15;55.11;100911.56;5073763;28;20117;-81
2021/04/03 09:34:35;;;;;;;19.05;4.88;;;;;;;11.28;55.45;100905.75;5072126;28;20215;-81
2021/04/03 09:37:12;;;;;;;20.35;4.70;;;;;;;11.40;55.53;100913.16;5073613;28;20098;-82
2021/04/03 09:39:48;;;;;;;19.88;5.30;;;;;;;11.57;55.22;100912.47;5073490;28;20048;-82
2021/04/03 09:42:17;;;;;;;21.20;5.15;;;;;;;11.72;54.47;100916.22;5073784;28;20056;-81
2021/04/03 09:44:45;;;;;;;13.35;4.65;;;;;;;11.84;54.22;100909.56;5072037;28;20052;-82
2021/04/03 09:47:11;;;;;;;20.23;4.63;;;;;;;11.94;54.02;100917.06;5072292;28;20071;-81
2021/04/03 09:49:41;;;;;;;20.58;5.13;;;;;;;12.02;53.56;100911.44;5073436;28;20118;-81
2021/04/03 09:52:09;;;;;;;21.60;4.85;;;;;;;12.09;53.57;100905.88;5072260;28;20101;-82
2021/04/03 09:54:36;;;;;;;17.15;4.55;;;;;;;12.19;53.46;100913.38;5109081;22;20060;-83
2021/04/03 09:57:03;;;;;;;16.67;4.65;;;;;;;12.25;53.17;100910.44;5072161;28;20048;-83
2021/04/03 09:59:30;;;;;;;17.42;5.25;;;;;;;12.32;52.56;100911.88;5073283;28;20416;-83
2021/04/03 10:01:57;;;;;;;22.40;5.07;;;;;;;12.37;52.72;100912.50;5075293;28;20055;-83
2021/04/03 10:04:24;;;;;;;16.08;4.60;;;;;;;12.46;52.79;100918.31;5077145;28;20113;-83
2021/04/03 10:06:50;;;;;;;15.95;4.43;;;;;;;12.54;53.45;100917.94;5076061;28;20094;-83
2021/04/03 10:09:17;;;;;;;17.80;4.65;;;;;;;12.64;53.37;100920.06;5077289;28;20053;-83
2021/04/03 10:11:43;;;;;;;17.98;4.90;;;;;;;12.75;53.41;100916.09;5077331;28;20048;-83
2021/04/03 10:14:10;;;;;;;21.52;4.57;;;;;;;12.88;52.92;100919.84;5076820;28;20059;-83
2021/04/03 10:16:36;;;;;;;18.67;4.55;;;;;;;13.01;52.69;100916.63;5077156;28;20079;-83
2021/04/03 10:19:03;;;;;;;19.08;4.88;;;;;;;13.13;52.16;100917.81;5077121;28;20049;-83
2021/04/03 10:21:30;;;;;;;18.88;4.70;;;;;;;13.24;52.40;100917.28;5076996;28;20096;-83
2021/04/03 10:23:56;;;;;;;13.18;3.53;;;;;;;13.37;52.51;100912.22;5075556;28;20558;-83
2021/04/03 10:26:22;;;;;;;13.57;4.20;;;;;;;13.50;52.29;100917.78;5076950;28;20094;-84
2021/04/03 10:28:48;;;;;;;13.13;3.80;;;;;;;13.63;52.29;100913.56;5076937;28;20048;-83
2021/04/03 10:31:15;;;;;;;14.52;4.47;;;;;;;13.82;52.15;100912.63;5076833;28;20053;-84
2021/04/03 10:33:41;;;;;;;23.10;4.82;;;;;;;13.99;51.89;100916.19;5076602;28;20130;-83
2021/04/03 10:36:08;;;;;;;19.05;3.90;;;;;;;14.16;51.43;100921.44;5076750;28;20113;-83
2021/04/03 10:38:35;;;;;;;12.10;3.72;;;;;;;14.33;50.85;100917.03;5076485;28;20056;-84
2021/04/03 10:41:03;;;;;;;16.38;3.67;;;;;;;14.46;50.85;100912.75;5076769;28;20060;-83
2021/04/03 10:43:29;;;;;;;11.68;3.00;;;;;;;14.60;49.99;100916.44;5076682;28;20493;-83
2021/04/03 10:45:56;;;;;;;13.68;3.22;;;;;;;14.71;49.94;100922.00;5076589;28;20059;-84
2021/04/03 10:48:22;;;;;;;12.25;3.38;;;;;;;14.84;49.06;100910.75;5075249;28;20048;-85
2021/04/03 10:50:48;;;;;;;9.85;3.17;;;;;;;14.94;49.32;100917.22;5076973;28;20048;-84
2021/04/03 10:53:14;;;;;;;16.08;3.50;;;;;;;15.06;49.55;100920.13;5076499;28;20052;-84
2021/04/03 10:55:41;;;;;;;13.98;3.60;;;;;;;15.21;49.24;100918.38;5076187;28;20075;-84
2021/04/03 10:58:07;;;;;;;15.63;4.05;;;;;;;15.38;49.42;100914.75;5076484;28;20102;-84
2021/04/03 11:00:33;;;;;;;9.15;3.10;;;;;;;15.57;48.94;100911.00;5075185;28;20084;-83
2021/04/03 11:03:00;;;;;;;12.38;3.35;;;;;;;15.75;48.02;100917.84;5076550;28;20048;-84
2021/04/03 11:05:26;;;;;;;11.85;3.13;;;;;;;15.95;47.23;100920.28;5076204;28;20095;-84
2021/04/03 11:07:52;;;;;;;9.50;2.67;;;;;;;16.15;47.24;100908.44;5075307;28;20181;-84
2021/04/03 11:10:18;;;;;;;9.63;3.10;;;;;;;16.34;46.44;100907.28;5077133;28;20048;-84
2021/04/03 11:12:44;;;;;;;10.88;3.13;;;;;;;16.56;46.74;100908.56;5075777;28;20057;-84
2021/04/03 11:15:12;;;;;;;8.30;3.13;;;;;;;16.85;46.22;100913.84;5074879;28;20049;-84
2021/04/03 11:17:41;;;;;;;7.20;2.60;;;;;;;17.20;43.70;100910.69;5075396;28;20048;-84
2021/04/03 11:20:11;;;;;;;10.95;3.17;;;;;;;17.54;44.14;100911.03;5074865;28;20555;-84
2021/04/03 11:22:41;;;;;;;10.20;3.05;;;;;;;17.81;43.03;100910.13;5074733;28;20055;-84
2021/04/03 11:25:22;;;;;;;11.50;2.60;;;;;;;18.06;42.52;100902.22;5074470;28;20110;-85
2021/04/03 11:27:48;;;;;;;9.95;2.78;;;;;;;18.16;41.87;100913.13;5076492;28;20135;-84
2021/04/03 11:30:15;;;;;;;7.22;2.70;;;;;;;18.15;40.21;100908.75;5076128;28;20053;-84
2021/04/03 11:32:43;;;;;;;7.45;2.25;;;;;;;18.13;40.82;100902.69;5075825;28;20112;-85